sensor_id;sensor_type;location;lat;lon;timestamp;P1;durP1;ratioP1;P2;durP2;ratioP2
20792;SDS011;10556;-33.662;151.094;2023-03-20T00:01:41;11.20;;;4.40;;
20792;SDS011;10556;-33.662;151.094;2023-03-20T00:06:43;12.90;;;4.40;;
20792;SDS011;10556;-33.662;151.094;2023-03-20T00:11:47;8.80;;;3.57;;
20792;SDS011;10556;-33.662;151.094;2023-03-20T00:16:49;10.57;;;4.07;;
20792;SDS011;10556;-33.662;151.094;2023-03-20T00:21:51;11.43;;;3.83;;
20792;SDS011;10556;-33.662;151.094;2023-03-20T00:26:54;7.93;;;4.23;;
20792;SDS011;10556;-33.662;151.094;2023-03-20T00:31:55;10.00;;;3.80;;
20792;SDS011;10556;-33.662;151.094;2023-03-20T00:36:56;8.80;;;3.60;;
20792;SDS011;10556;-33.662;151.094;2023-03-20T00:42:00;9.67;;;3.03;;
20792;SDS011;10556;-33.662;151.094;2023-03-20T00:47:02;12.17;;;3.63;;
20792;SDS011;10556;-33.662;151.094;2023-03-20T00:52:05;9.53;;;3.03;;
20792;SDS011;10556;-33.662;151.094;2023-03-20T00:57:08;10.03;;;2.83;;
20792;SDS011;10556;-33.662;151.094;2023-03-20T01:02:12;7.70;;;2.53;;
20792;SDS011;10556;-33.662;151.094;2023-03-20T01:07:13;8.93;;;2.93;;
20792;SDS011;10556;-33.662;151.094;2023-03-20T01:12:16;6.70;;;2.20;;
20792;SDS011;10556;-33.662;151.094;2023-03-20T01:17:18;5.03;;;1.83;;
20792;SDS011;10556;-33.662;151.094;2023-03-20T01:22:20;3.47;;;1.10;;
20792;SDS011;10556;-33.662;151.094;2023-03-20T01:27:23;5.30;;;1.70;;
20792;SDS011;10556;-33.662;151.094;2023-03-20T01:32:24;8.07;;;1.47;;
20792;SDS011;10556;-33.662;151.094;2023-03-20T01:37:26;4.47;;;1.30;;
20792;SDS011;10556;-33.662;151.094;2023-03-20T01:42:29;8.87;;;1.50;;
20792;SDS011;10556;-33.662;151.094;2023-03-20T01:47:31;10.73;;;1.50;;
20792;SDS011;10556;-33.662;151.094;2023-03-20T01:52:32;7.70;;;1.67;;
20792;SDS011;10556;-33.662;151.094;2023-03-20T01:57:35;7.83;;;1.90;;
20792;SDS011;10556;-33.662;151.094;2023-03-20T02:02:37;10.17;;;1.60;;
20792;SDS011;10556;-33.662;151.094;2023-03-20T02:07:39;10.90;;;1.80;;
20792;SDS011;10556;-33.662;151.094;2023-03-20T02:12:42;6.77;;;1.20;;
20792;SDS011;10556;-33.662;151.094;2023-03-20T02:17:44;8.40;;;1.10;;
20792;SDS011;10556;-33.662;151.094;2023-03-20T02:28:08;6.40;;;1.23;;
20792;SDS011;10556;-33.662;151.094;2023-03-20T02:33:25;6.90;;;1.30;;
20792;SDS011;10556;-33.662;151.094;2023-03-20T02:43:51;11.83;;;1.60;;
20792;SDS011;10556;-33.662;151.094;2023-03-20T02:48:55;7.30;;;1.30;;
20792;SDS011;10556;-33.662;151.094;2023-03-20T02:53:59;5.90;;;0.83;;
20792;SDS011;10556;-33.662;151.094;2023-03-20T02:59:09;6.77;;;1.60;;
20792;SDS011;10556;-33.662;151.094;2023-03-20T03:04:13;7.33;;;1.30;;
20792;SDS011;10556;-33.662;151.094;2023-03-20T03:09:17;5.10;;;1.20;;
20792;SDS011;10556;-33.662;151.094;2023-03-20T03:14:23;13.67;;;2.13;;
20792;SDS011;10556;-33.662;151.094;2023-03-20T03:19:26;7.33;;;1.27;;
20792;SDS011;10556;-33.662;151.094;2023-03-20T03:24:29;5.30;;;0.90;;
20792;SDS011;10556;-33.662;151.094;2023-03-20T03:29:32;6.20;;;1.37;;
20792;SDS011;10556;-33.662;151.094;2023-03-20T03:34:36;5.83;;;1.00;;
20792;SDS011;10556;-33.662;151.094;2023-03-20T03:39:37;5.77;;;1.10;;
20792;SDS011;10556;-33.662;151.094;2023-03-20T03:44:44;4.90;;;1.00;;
20792;SDS011;10556;-33.662;151.094;2023-03-20T03:49:47;6.87;;;1.40;;
20792;SDS011;10556;-33.662;151.094;2023-03-20T03:54:50;7.53;;;1.13;;
20792;SDS011;10556;-33.662;151.094;2023-03-20T03:59:54;5.43;;;1.10;;
20792;SDS011;10556;-33.662;151.094;2023-03-20T04:04:57;5.73;;;1.37;;
20792;SDS011;10556;-33.662;151.094;2023-03-20T04:09:59;8.53;;;1.70;;
20792;SDS011;10556;-33.662;151.094;2023-03-20T04:15:02;4.60;;;0.80;;
20792;SDS011;10556;-33.662;151.094;2023-03-20T04:20:04;3.63;;;0.70;;
20792;SDS011;10556;-33.662;151.094;2023-03-20T04:25:06;6.70;;;1.00;;
20792;SDS011;10556;-33.662;151.094;2023-03-20T04:30:10;3.00;;;0.90;;
20792;SDS011;10556;-33.662;151.094;2023-03-20T04:35:11;3.53;;;0.90;;
20792;SDS011;10556;-33.662;151.094;2023-03-20T04:40:13;6.07;;;1.33;;
20792;SDS011;10556;-33.662;151.094;2023-03-20T04:45:16;5.17;;;0.90;;
20792;SDS011;10556;-33.662;151.094;2023-03-20T04:50:17;8.53;;;1.43;;
20792;SDS011;10556;-33.662;151.094;2023-03-20T04:55:18;8.30;;;1.37;;
20792;SDS011;10556;-33.662;151.094;2023-03-20T05:00:22;5.07;;;1.10;;
20792;SDS011;10556;-33.662;151.094;2023-03-20T05:05:23;3.60;;;0.97;;
20792;SDS011;10556;-33.662;151.094;2023-03-20T05:10:24;4.47;;;1.17;;
20792;SDS011;10556;-33.662;151.094;2023-03-20T05:15:27;7.73;;;1.47;;
20792;SDS011;10556;-33.662;151.094;2023-03-20T05:20:29;8.67;;;1.60;;
20792;SDS011;10556;-33.662;151.094;2023-03-20T05:25:30;4.50;;;0.90;;
20792;SDS011;10556;-33.662;151.094;2023-03-20T05:30:33;6.33;;;1.10;;
20792;SDS011;10556;-33.662;151.094;2023-03-20T05:35:34;4.57;;;1.07;;
20792;SDS011;10556;-33.662;151.094;2023-03-20T05:40:35;3.57;;;0.90;;
20792;SDS011;10556;-33.662;151.094;2023-03-20T05:45:38;7.40;;;1.40;;
20792;SDS011;10556;-33.662;151.094;2023-03-20T05:50:40;3.00;;;0.90;;
20792;SDS011;10556;-33.662;151.094;2023-03-20T05:55:41;5.23;;;1.20;;
20792;SDS011;10556;-33.662;151.094;2023-03-20T06:00:44;5.93;;;1.03;;
20792;SDS011;10556;-33.662;151.094;2023-03-20T06:05:45;7.23;;;1.17;;
20792;SDS011;10556;-33.662;151.094;2023-03-20T06:10:49;2.90;;;0.70;;
20792;SDS011;10556;-33.662;151.094;2023-03-20T06:15:52;8.10;;;1.27;;
20792;SDS011;10556;-33.662;151.094;2023-03-20T06:20:53;6.87;;;1.43;;
20792;SDS011;10556;-33.662;151.094;2023-03-20T06:25:55;7.27;;;1.30;;
20792;SDS011;10556;-33.662;151.094;2023-03-20T06:30:58;5.60;;;1.50;;
20792;SDS011;10556;-33.662;151.094;2023-03-20T06:35:59;4.87;;;1.20;;
20792;SDS011;10556;-33.662;151.094;2023-03-20T06:41:01;5.17;;;1.13;;
20792;SDS011;10556;-33.662;151.094;2023-03-20T06:46:04;6.70;;;1.07;;
20792;SDS011;10556;-33.662;151.094;2023-03-20T06:51:05;4.40;;;1.07;;
20792;SDS011;10556;-33.662;151.094;2023-03-20T06:56:07;4.53;;;1.00;;
20792;SDS011;10556;-33.662;151.094;2023-03-20T07:01:11;3.47;;;0.90;;
20792;SDS011;10556;-33.662;151.094;2023-03-20T07:06:13;3.17;;;0.93;;
20792;SDS011;10556;-33.662;151.094;2023-03-20T07:11:14;4.40;;;1.27;;
20792;SDS011;10556;-33.662;151.094;2023-03-20T07:16:17;3.93;;;1.00;;
20792;SDS011;10556;-33.662;151.094;2023-03-20T07:21:19;4.80;;;0.90;;
20792;SDS011;10556;-33.662;151.094;2023-03-20T07:26:21;3.40;;;1.00;;
20792;SDS011;10556;-33.662;151.094;2023-03-20T07:31:24;3.40;;;0.77;;
20792;SDS011;10556;-33.662;151.094;2023-03-20T07:36:26;3.37;;;0.80;;
20792;SDS011;10556;-33.662;151.094;2023-03-20T07:41:27;4.13;;;0.70;;
20792;SDS011;10556;-33.662;151.094;2023-03-20T07:46:30;5.70;;;0.80;;
20792;SDS011;10556;-33.662;151.094;2023-03-20T07:51:32;4.90;;;1.00;;
20792;SDS011;10556;-33.662;151.094;2023-03-20T07:56:33;3.73;;;0.93;;
20792;SDS011;10556;-33.662;151.094;2023-03-20T08:01:36;3.73;;;0.77;;
20792;SDS011;10556;-33.662;151.094;2023-03-20T08:06:37;3.37;;;0.90;;
20792;SDS011;10556;-33.662;151.094;2023-03-20T08:11:39;7.67;;;1.27;;
20792;SDS011;10556;-33.662;151.094;2023-03-20T08:16:42;5.93;;;1.00;;
20792;SDS011;10556;-33.662;151.094;2023-03-20T08:21:43;4.40;;;1.10;;
20792;SDS011;10556;-33.662;151.094;2023-03-20T08:26:44;4.23;;;1.10;;
20792;SDS011;10556;-33.662;151.094;2023-03-20T08:31:47;1.97;;;0.60;;
20792;SDS011;10556;-33.662;151.094;2023-03-20T08:36:49;3.60;;;1.00;;
20792;SDS011;10556;-33.662;151.094;2023-03-20T08:41:50;5.37;;;1.50;;
20792;SDS011;10556;-33.662;151.094;2023-03-20T08:46:53;2.17;;;0.90;;
20792;SDS011;10556;-33.662;151.094;2023-03-20T08:51:54;5.03;;;1.20;;
20792;SDS011;10556;-33.662;151.094;2023-03-20T08:56:55;2.73;;;0.77;;
20792;SDS011;10556;-33.662;151.094;2023-03-20T09:01:58;7.53;;;1.30;;
20792;SDS011;10556;-33.662;151.094;2023-03-20T09:07:00;3.90;;;0.93;;
20792;SDS011;10556;-33.662;151.094;2023-03-20T09:12:01;2.20;;;0.83;;
20792;SDS011;10556;-33.662;151.094;2023-03-20T09:17:04;4.23;;;0.83;;
20792;SDS011;10556;-33.662;151.094;2023-03-20T09:22:05;5.23;;;1.00;;
20792;SDS011;10556;-33.662;151.094;2023-03-20T09:27:06;3.60;;;0.70;;
20792;SDS011;10556;-33.662;151.094;2023-03-20T09:32:10;4.40;;;0.90;;
20792;SDS011;10556;-33.662;151.094;2023-03-20T09:37:11;3.97;;;0.80;;
20792;SDS011;10556;-33.662;151.094;2023-03-20T09:42:16;1.73;;;0.83;;
20792;SDS011;10556;-33.662;151.094;2023-03-20T09:47:24;1.77;;;0.60;;
20792;SDS011;10556;-33.662;151.094;2023-03-20T09:52:29;2.77;;;0.67;;
20792;SDS011;10556;-33.662;151.094;2023-03-20T09:57:33;5.53;;;1.20;;
20792;SDS011;10556;-33.662;151.094;2023-03-20T10:02:38;4.47;;;0.83;;
20792;SDS011;10556;-33.662;151.094;2023-03-20T10:07:42;5.67;;;1.00;;
20792;SDS011;10556;-33.662;151.094;2023-03-20T10:12:46;4.30;;;0.90;;
20792;SDS011;10556;-33.662;151.094;2023-03-20T10:17:53;7.17;;;1.40;;
20792;SDS011;10556;-33.662;151.094;2023-03-20T10:22:58;3.93;;;1.00;;
20792;SDS011;10556;-33.662;151.094;2023-03-20T10:28:04;3.70;;;0.87;;
20792;SDS011;10556;-33.662;151.094;2023-03-20T10:33:14;4.70;;;0.90;;
20792;SDS011;10556;-33.662;151.094;2023-03-20T10:38:22;6.03;;;1.00;;
20792;SDS011;10556;-33.662;151.094;2023-03-20T10:43:28;4.83;;;1.40;;
20792;SDS011;10556;-33.662;151.094;2023-03-20T10:48:33;4.50;;;0.90;;
20792;SDS011;10556;-33.662;151.094;2023-03-20T10:53:40;4.43;;;1.10;;
20792;SDS011;10556;-33.662;151.094;2023-03-20T10:58:43;6.00;;;1.10;;
20792;SDS011;10556;-33.662;151.094;2023-03-20T11:03:48;6.17;;;1.00;;
20792;SDS011;10556;-33.662;151.094;2023-03-20T11:08:50;5.27;;;1.13;;
20792;SDS011;10556;-33.662;151.094;2023-03-20T11:13:52;4.03;;;0.80;;
20792;SDS011;10556;-33.662;151.094;2023-03-20T11:18:55;2.83;;;0.90;;
20792;SDS011;10556;-33.662;151.094;2023-03-20T11:23:56;3.23;;;0.90;;
20792;SDS011;10556;-33.662;151.094;2023-03-20T11:28:58;2.10;;;0.80;;
20792;SDS011;10556;-33.662;151.094;2023-03-20T11:34:08;5.90;;;0.87;;
20792;SDS011;10556;-33.662;151.094;2023-03-20T11:39:11;5.50;;;1.27;;
20792;SDS011;10556;-33.662;151.094;2023-03-20T11:44:22;6.00;;;0.97;;
20792;SDS011;10556;-33.662;151.094;2023-03-20T11:49:26;5.80;;;1.37;;
20792;SDS011;10556;-33.662;151.094;2023-03-20T11:54:27;4.07;;;1.07;;
20792;SDS011;10556;-33.662;151.094;2023-03-20T11:59:29;4.10;;;1.07;;
20792;SDS011;10556;-33.662;151.094;2023-03-20T12:04:33;5.47;;;1.07;;
20792;SDS011;10556;-33.662;151.094;2023-03-20T12:09:38;4.80;;;0.90;;
20792;SDS011;10556;-33.662;151.094;2023-03-20T12:14:43;8.83;;;1.53;;
20792;SDS011;10556;-33.662;151.094;2023-03-20T12:19:50;5.00;;;1.07;;
20792;SDS011;10556;-33.662;151.094;2023-03-20T12:24:54;11.83;;;1.30;;
20792;SDS011;10556;-33.662;151.094;2023-03-20T12:29:59;6.63;;;1.40;;
20792;SDS011;10556;-33.662;151.094;2023-03-20T12:35:03;8.47;;;1.53;;
20792;SDS011;10556;-33.662;151.094;2023-03-20T12:40:11;4.87;;;1.40;;
20792;SDS011;10556;-33.662;151.094;2023-03-20T12:45:12;6.70;;;1.33;;
20792;SDS011;10556;-33.662;151.094;2023-03-20T12:50:18;4.40;;;0.90;;
20792;SDS011;10556;-33.662;151.094;2023-03-20T12:55:28;6.80;;;1.30;;
20792;SDS011;10556;-33.662;151.094;2023-03-20T13:00:31;7.03;;;1.50;;
20792;SDS011;10556;-33.662;151.094;2023-03-20T13:05:39;7.80;;;1.60;;
20792;SDS011;10556;-33.662;151.094;2023-03-20T13:10:48;8.23;;;1.27;;
20792;SDS011;10556;-33.662;151.094;2023-03-20T13:15:57;7.40;;;1.30;;
20792;SDS011;10556;-33.662;151.094;2023-03-20T13:21:04;8.73;;;1.33;;
20792;SDS011;10556;-33.662;151.094;2023-03-20T13:26:11;10.40;;;1.67;;
20792;SDS011;10556;-33.662;151.094;2023-03-20T13:31:17;7.97;;;1.20;;
20792;SDS011;10556;-33.662;151.094;2023-03-20T13:36:33;9.90;;;1.70;;
20792;SDS011;10556;-33.662;151.094;2023-03-20T13:41:37;10.47;;;1.70;;
20792;SDS011;10556;-33.662;151.094;2023-03-20T13:46:39;9.83;;;1.53;;
20792;SDS011;10556;-33.662;151.094;2023-03-20T13:51:44;8.33;;;1.47;;
20792;SDS011;10556;-33.662;151.094;2023-03-20T13:56:49;10.60;;;1.80;;
20792;SDS011;10556;-33.662;151.094;2023-03-20T14:01:53;6.27;;;1.20;;
20792;SDS011;10556;-33.662;151.094;2023-03-20T14:06:58;3.63;;;1.17;;
20792;SDS011;10556;-33.662;151.094;2023-03-20T14:12:00;6.80;;;1.20;;
20792;SDS011;10556;-33.662;151.094;2023-03-20T14:17:03;7.93;;;1.50;;
20792;SDS011;10556;-33.662;151.094;2023-03-20T14:22:08;5.60;;;0.97;;
20792;SDS011;10556;-33.662;151.094;2023-03-20T14:27:15;8.27;;;1.37;;
20792;SDS011;10556;-33.662;151.094;2023-03-20T14:32:21;7.57;;;1.30;;
20792;SDS011;10556;-33.662;151.094;2023-03-20T14:37:29;9.67;;;1.33;;
20792;SDS011;10556;-33.662;151.094;2023-03-20T14:42:34;9.53;;;1.27;;
20792;SDS011;10556;-33.662;151.094;2023-03-20T14:47:38;8.03;;;1.43;;
20792;SDS011;10556;-33.662;151.094;2023-03-20T14:52:51;5.93;;;1.43;;
20792;SDS011;10556;-33.662;151.094;2023-03-20T14:57:54;8.67;;;1.10;;
20792;SDS011;10556;-33.662;151.094;2023-03-20T15:02:57;7.67;;;1.00;;
20792;SDS011;10556;-33.662;151.094;2023-03-20T15:08:04;5.67;;;1.00;;
20792;SDS011;10556;-33.662;151.094;2023-03-20T15:13:07;4.33;;;0.80;;
20792;SDS011;10556;-33.662;151.094;2023-03-20T15:18:10;9.37;;;2.00;;
20792;SDS011;10556;-33.662;151.094;2023-03-20T15:23:14;6.03;;;1.00;;
20792;SDS011;10556;-33.662;151.094;2023-03-20T15:28:15;7.13;;;1.10;;
20792;SDS011;10556;-33.662;151.094;2023-03-20T15:33:18;8.50;;;1.97;;
20792;SDS011;10556;-33.662;151.094;2023-03-20T15:38:27;8.00;;;1.23;;
20792;SDS011;10556;-33.662;151.094;2023-03-20T15:43:29;6.43;;;1.90;;
20792;SDS011;10556;-33.662;151.094;2023-03-20T15:48:30;8.70;;;1.30;;
20792;SDS011;10556;-33.662;151.094;2023-03-20T15:53:33;5.50;;;1.33;;
20792;SDS011;10556;-33.662;151.094;2023-03-20T15:58:35;11.37;;;1.10;;
20792;SDS011;10556;-33.662;151.094;2023-03-20T16:03:37;3.43;;;1.00;;
20792;SDS011;10556;-33.662;151.094;2023-03-20T16:08:41;6.10;;;1.03;;
20792;SDS011;10556;-33.662;151.094;2023-03-20T16:13:43;10.47;;;1.00;;
20792;SDS011;10556;-33.662;151.094;2023-03-20T16:18:44;5.20;;;0.90;;
20792;SDS011;10556;-33.662;151.094;2023-03-20T16:23:48;11.57;;;1.30;;
20792;SDS011;10556;-33.662;151.094;2023-03-20T16:28:51;5.97;;;1.20;;
20792;SDS011;10556;-33.662;151.094;2023-03-20T16:33:56;8.47;;;1.70;;
20792;SDS011;10556;-33.662;151.094;2023-03-20T16:39:01;11.13;;;1.43;;
20792;SDS011;10556;-33.662;151.094;2023-03-20T16:44:04;8.00;;;1.07;;
20792;SDS011;10556;-33.662;151.094;2023-03-20T16:49:19;7.90;;;0.90;;
20792;SDS011;10556;-33.662;151.094;2023-03-20T16:54:39;8.53;;;1.47;;
20792;SDS011;10556;-33.662;151.094;2023-03-20T16:59:46;2.93;;;0.90;;
20792;SDS011;10556;-33.662;151.094;2023-03-20T17:04:48;9.37;;;1.40;;
20792;SDS011;10556;-33.662;151.094;2023-03-20T17:09:54;9.57;;;1.63;;
20792;SDS011;10556;-33.662;151.094;2023-03-20T17:14:57;7.67;;;1.40;;
20792;SDS011;10556;-33.662;151.094;2023-03-20T17:19:58;9.20;;;1.47;;
20792;SDS011;10556;-33.662;151.094;2023-03-20T17:25:01;7.77;;;1.40;;
20792;SDS011;10556;-33.662;151.094;2023-03-20T17:30:03;4.60;;;0.87;;
20792;SDS011;10556;-33.662;151.094;2023-03-20T17:35:04;5.17;;;0.93;;
20792;SDS011;10556;-33.662;151.094;2023-03-20T17:40:10;8.77;;;1.47;;
20792;SDS011;10556;-33.662;151.094;2023-03-20T17:45:15;5.53;;;1.23;;
20792;SDS011;10556;-33.662;151.094;2023-03-20T17:50:17;6.93;;;1.60;;
20792;SDS011;10556;-33.662;151.094;2023-03-20T17:55:20;6.67;;;0.90;;
20792;SDS011;10556;-33.662;151.094;2023-03-20T18:00:22;15.80;;;1.50;;
20792;SDS011;10556;-33.662;151.094;2023-03-20T18:05:24;6.17;;;1.20;;
20792;SDS011;10556;-33.662;151.094;2023-03-20T18:10:27;5.57;;;1.00;;
20792;SDS011;10556;-33.662;151.094;2023-03-20T18:15:29;4.70;;;1.00;;
20792;SDS011;10556;-33.662;151.094;2023-03-20T18:20:30;7.07;;;0.80;;
20792;SDS011;10556;-33.662;151.094;2023-03-20T18:25:34;5.50;;;1.13;;
20792;SDS011;10556;-33.662;151.094;2023-03-20T18:30:36;6.60;;;1.17;;
20792;SDS011;10556;-33.662;151.094;2023-03-20T18:35:37;6.80;;;1.10;;
20792;SDS011;10556;-33.662;151.094;2023-03-20T18:40:40;6.10;;;1.00;;
20792;SDS011;10556;-33.662;151.094;2023-03-20T18:45:42;4.33;;;1.03;;
20792;SDS011;10556;-33.662;151.094;2023-03-20T18:50:43;9.63;;;1.63;;
20792;SDS011;10556;-33.662;151.094;2023-03-20T18:55:46;5.57;;;1.40;;
20792;SDS011;10556;-33.662;151.094;2023-03-20T19:00:48;7.23;;;1.27;;
20792;SDS011;10556;-33.662;151.094;2023-03-20T19:05:49;6.07;;;1.20;;
20792;SDS011;10556;-33.662;151.094;2023-03-20T19:10:52;4.53;;;1.10;;
20792;SDS011;10556;-33.662;151.094;2023-03-20T19:15:53;4.90;;;0.97;;
20792;SDS011;10556;-33.662;151.094;2023-03-20T19:20:55;8.23;;;1.70;;
20792;SDS011;10556;-33.662;151.094;2023-03-20T19:25:58;2.83;;;0.90;;
20792;SDS011;10556;-33.662;151.094;2023-03-20T19:30:59;8.53;;;1.00;;
20792;SDS011;10556;-33.662;151.094;2023-03-20T19:36:01;4.50;;;1.20;;
20792;SDS011;10556;-33.662;151.094;2023-03-20T19:41:04;4.60;;;1.20;;
20792;SDS011;10556;-33.662;151.094;2023-03-20T19:46:05;3.20;;;0.90;;
20792;SDS011;10556;-33.662;151.094;2023-03-20T19:51:10;10.67;;;2.50;;
20792;SDS011;10556;-33.662;151.094;2023-03-20T19:56:14;6.77;;;1.20;;
20792;SDS011;10556;-33.662;151.094;2023-03-20T20:01:16;6.70;;;0.80;;
20792;SDS011;10556;-33.662;151.094;2023-03-20T20:06:18;8.63;;;1.03;;
20792;SDS011;10556;-33.662;151.094;2023-03-20T20:11:21;5.17;;;1.53;;
20792;SDS011;10556;-33.662;151.094;2023-03-20T20:16:22;6.87;;;0.97;;
20792;SDS011;10556;-33.662;151.094;2023-03-20T20:21:23;5.53;;;1.43;;
20792;SDS011;10556;-33.662;151.094;2023-03-20T20:26:26;3.67;;;0.77;;
20792;SDS011;10556;-33.662;151.094;2023-03-20T20:31:28;6.20;;;0.90;;
20792;SDS011;10556;-33.662;151.094;2023-03-20T20:36:29;4.30;;;1.20;;
20792;SDS011;10556;-33.662;151.094;2023-03-20T20:41:32;5.27;;;0.90;;
20792;SDS011;10556;-33.662;151.094;2023-03-20T20:46:33;7.00;;;1.03;;
20792;SDS011;10556;-33.662;151.094;2023-03-20T20:51:35;2.50;;;0.50;;
20792;SDS011;10556;-33.662;151.094;2023-03-20T20:56:38;1.73;;;0.70;;
20792;SDS011;10556;-33.662;151.094;2023-03-20T21:01:39;3.63;;;1.00;;
20792;SDS011;10556;-33.662;151.094;2023-03-20T21:06:40;3.63;;;0.70;;
20792;SDS011;10556;-33.662;151.094;2023-03-20T21:11:43;5.20;;;0.77;;
20792;SDS011;10556;-33.662;151.094;2023-03-20T21:16:44;2.63;;;0.57;;
20792;SDS011;10556;-33.662;151.094;2023-03-20T21:21:46;4.53;;;0.90;;
20792;SDS011;10556;-33.662;151.094;2023-03-20T21:26:49;7.27;;;1.13;;
20792;SDS011;10556;-33.662;151.094;2023-03-20T21:31:50;2.90;;;0.70;;
20792;SDS011;10556;-33.662;151.094;2023-03-20T21:36:51;2.87;;;0.60;;
20792;SDS011;10556;-33.662;151.094;2023-03-20T21:41:54;5.37;;;1.10;;
20792;SDS011;10556;-33.662;151.094;2023-03-20T21:46:55;7.63;;;2.10;;
20792;SDS011;10556;-33.662;151.094;2023-03-20T21:51:57;6.00;;;1.20;;
20792;SDS011;10556;-33.662;151.094;2023-03-20T21:57:00;6.03;;;1.50;;
20792;SDS011;10556;-33.662;151.094;2023-03-20T22:02:01;6.10;;;1.23;;
20792;SDS011;10556;-33.662;151.094;2023-03-20T22:07:02;4.67;;;1.07;;
20792;SDS011;10556;-33.662;151.094;2023-03-20T22:12:06;3.63;;;1.07;;
20792;SDS011;10556;-33.662;151.094;2023-03-20T22:17:07;4.53;;;1.07;;
20792;SDS011;10556;-33.662;151.094;2023-03-20T22:22:08;3.43;;;0.77;;
20792;SDS011;10556;-33.662;151.094;2023-03-20T22:27:11;6.97;;;0.80;;
20792;SDS011;10556;-33.662;151.094;2023-03-20T22:32:13;3.47;;;0.83;;
20792;SDS011;10556;-33.662;151.094;2023-03-20T22:37:14;3.80;;;0.70;;
20792;SDS011;10556;-33.662;151.094;2023-03-20T22:42:17;1.67;;;0.60;;
20792;SDS011;10556;-33.662;151.094;2023-03-20T22:47:18;1.50;;;0.47;;
20792;SDS011;10556;-33.662;151.094;2023-03-20T22:52:19;5.80;;;0.77;;
20792;SDS011;10556;-33.662;151.094;2023-03-20T22:57:22;2.90;;;0.70;;
20792;SDS011;10556;-33.662;151.094;2023-03-20T23:02:24;3.03;;;0.70;;
20792;SDS011;10556;-33.662;151.094;2023-03-20T23:07:25;1.73;;;0.60;;
20792;SDS011;10556;-33.662;151.094;2023-03-20T23:12:28;4.33;;;1.07;;
20792;SDS011;10556;-33.662;151.094;2023-03-20T23:17:29;3.33;;;0.60;;
20792;SDS011;10556;-33.662;151.094;2023-03-20T23:22:31;2.27;;;0.37;;
20792;SDS011;10556;-33.662;151.094;2023-03-20T23:27:34;7.00;;;1.00;;
20792;SDS011;10556;-33.662;151.094;2023-03-20T23:32:35;6.40;;;1.30;;
20792;SDS011;10556;-33.662;151.094;2023-03-20T23:37:36;3.03;;;0.40;;
20792;SDS011;10556;-33.662;151.094;2023-03-20T23:42:39;1.77;;;0.50;;
20792;SDS011;10556;-33.662;151.094;2023-03-20T23:47:41;1.53;;;0.50;;
20792;SDS011;10556;-33.662;151.094;2023-03-20T23:52:42;2.70;;;0.80;;
20792;SDS011;10556;-33.662;151.094;2023-03-20T23:57:45;2.27;;;0.60;;
